sensor_id;sensor_type;location;lat;lon;timestamp;temperature;humidity
40758;DHT22;26462;47.384;19.218;2022-07-23T00:00:30;26.20;66.70
40758;DHT22;26462;47.384;19.218;2022-07-23T00:03:06;26.10;67.30
40758;DHT22;26462;47.384;19.218;2022-07-23T00:05:35;26.10;66.10
40758;DHT22;26462;47.384;19.218;2022-07-23T00:08:04;26.10;66.70
40758;DHT22;26462;47.384;19.218;2022-07-23T00:10:36;26.00;66.00
40758;DHT22;26462;47.384;19.218;2022-07-23T00:13:04;26.00;66.50
40758;DHT22;26462;47.384;19.218;2022-07-23T00:15:31;26.00;65.90
40758;DHT22;26462;47.384;19.218;2022-07-23T00:17:59;25.90;66.40
40758;DHT22;26462;47.384;19.218;2022-07-23T00:20:26;25.90;66.80
40758;DHT22;26462;47.384;19.218;2022-07-23T00:22:55;25.90;68.40
40758;DHT22;26462;47.384;19.218;2022-07-23T00:25:23;25.90;67.70
40758;DHT22;26462;47.384;19.218;2022-07-23T00:27:57;25.80;68.20
40758;DHT22;26462;47.384;19.218;2022-07-23T00:30:25;25.80;67.90
40758;DHT22;26462;47.384;19.218;2022-07-23T00:32:55;25.70;67.60
40758;DHT22;26462;47.384;19.218;2022-07-23T00:35:28;25.70;67.30
40758;DHT22;26462;47.384;19.218;2022-07-23T00:37:56;25.70;67.90
40758;DHT22;26462;47.384;19.218;2022-07-23T00:40:24;25.70;68.90
40758;DHT22;26462;47.384;19.218;2022-07-23T00:42:53;25.70;69.00
40758;DHT22;26462;47.384;19.218;2022-07-23T00:45:20;25.60;68.40
40758;DHT22;26462;47.384;19.218;2022-07-23T00:47:48;25.60;68.80
40758;DHT22;26462;47.384;19.218;2022-07-23T00:50:16;25.60;69.20
40758;DHT22;26462;47.384;19.218;2022-07-23T00:52:44;25.60;69.90
40758;DHT22;26462;47.384;19.218;2022-07-23T00:55:13;25.50;70.10
40758;DHT22;26462;47.384;19.218;2022-07-23T00:57:41;25.40;70.00
40758;DHT22;26462;47.384;19.218;2022-07-23T01:00:12;25.40;70.20
40758;DHT22;26462;47.384;19.218;2022-07-23T01:02:40;25.40;69.90
40758;DHT22;26462;47.384;19.218;2022-07-23T01:05:08;25.30;71.00
40758;DHT22;26462;47.384;19.218;2022-07-23T01:07:37;25.30;70.00
40758;DHT22;26462;47.384;19.218;2022-07-23T01:10:05;25.30;69.90
40758;DHT22;26462;47.384;19.218;2022-07-23T01:12:53;25.30;71.30
40758;DHT22;26462;47.384;19.218;2022-07-23T01:15:21;25.20;71.40
40758;DHT22;26462;47.384;19.218;2022-07-23T01:17:50;25.20;71.90
40758;DHT22;26462;47.384;19.218;2022-07-23T01:20:18;25.20;71.90
40758;DHT22;26462;47.384;19.218;2022-07-23T01:22:46;25.20;71.60
40758;DHT22;26462;47.384;19.218;2022-07-23T01:25:14;25.20;71.40
40758;DHT22;26462;47.384;19.218;2022-07-23T01:27:51;25.20;71.90
40758;DHT22;26462;47.384;19.218;2022-07-23T01:30:19;25.20;72.20
40758;DHT22;26462;47.384;19.218;2022-07-23T01:32:47;25.20;71.70
40758;DHT22;26462;47.384;19.218;2022-07-23T01:35:15;25.20;71.50
40758;DHT22;26462;47.384;19.218;2022-07-23T01:37:43;25.20;71.20
40758;DHT22;26462;47.384;19.218;2022-07-23T01:40:10;25.20;71.40
40758;DHT22;26462;47.384;19.218;2022-07-23T01:42:38;25.10;72.70
40758;DHT22;26462;47.384;19.218;2022-07-23T01:45:10;25.10;72.30
40758;DHT22;26462;47.384;19.218;2022-07-23T01:47:42;25.00;71.00
40758;DHT22;26462;47.384;19.218;2022-07-23T01:50:09;25.10;70.90
40758;DHT22;26462;47.384;19.218;2022-07-23T01:53:03;25.00;71.40
40758;DHT22;26462;47.384;19.218;2022-07-23T01:55:30;25.00;72.00
40758;DHT22;26462;47.384;19.218;2022-07-23T01:57:58;25.00;71.30
40758;DHT22;26462;47.384;19.218;2022-07-23T02:00:28;25.00;71.00
40758;DHT22;26462;47.384;19.218;2022-07-23T02:02:56;25.00;70.70
40758;DHT22;26462;47.384;19.218;2022-07-23T02:05:27;24.90;70.50
40758;DHT22;26462;47.384;19.218;2022-07-23T02:07:56;24.90;70.50
40758;DHT22;26462;47.384;19.218;2022-07-23T02:10:24;24.90;70.50
40758;DHT22;26462;47.384;19.218;2022-07-23T02:12:52;24.80;70.40
40758;DHT22;26462;47.384;19.218;2022-07-23T02:15:19;24.80;71.50
40758;DHT22;26462;47.384;19.218;2022-07-23T02:17:48;24.80;71.80
40758;DHT22;26462;47.384;19.218;2022-07-23T02:20:15;24.80;72.10
40758;DHT22;26462;47.384;19.218;2022-07-23T02:22:43;24.80;72.50
40758;DHT22;26462;47.384;19.218;2022-07-23T02:25:11;24.80;72.70
40758;DHT22;26462;47.384;19.218;2022-07-23T02:27:38;24.80;72.00
40758;DHT22;26462;47.384;19.218;2022-07-23T02:30:07;24.70;72.10
40758;DHT22;26462;47.384;19.218;2022-07-23T02:32:35;24.70;72.50
40758;DHT22;26462;47.384;19.218;2022-07-23T02:35:04;24.70;73.00
40758;DHT22;26462;47.384;19.218;2022-07-23T02:37:32;24.70;72.90
40758;DHT22;26462;47.384;19.218;2022-07-23T02:39:59;24.60;72.90
40758;DHT22;26462;47.384;19.218;2022-07-23T02:42:27;24.60;73.20
40758;DHT22;26462;47.384;19.218;2022-07-23T02:44:54;24.50;73.70
40758;DHT22;26462;47.384;19.218;2022-07-23T02:47:22;24.50;74.90
40758;DHT22;26462;47.384;19.218;2022-07-23T02:49:50;24.50;75.60
40758;DHT22;26462;47.384;19.218;2022-07-23T02:52:17;24.50;74.40
40758;DHT22;26462;47.384;19.218;2022-07-23T02:54:44;24.50;74.50
40758;DHT22;26462;47.384;19.218;2022-07-23T02:57:15;24.50;74.50
40758;DHT22;26462;47.384;19.218;2022-07-23T02:59:42;24.40;75.70
40758;DHT22;26462;47.384;19.218;2022-07-23T03:02:10;24.40;75.30
40758;DHT22;26462;47.384;19.218;2022-07-23T03:04:37;24.40;75.70
40758;DHT22;26462;47.384;19.218;2022-07-23T03:07:05;24.40;76.30
40758;DHT22;26462;47.384;19.218;2022-07-23T03:09:33;24.40;76.20
40758;DHT22;26462;47.384;19.218;2022-07-23T03:12:00;24.30;76.20
40758;DHT22;26462;47.384;19.218;2022-07-23T03:14:28;24.30;76.80
40758;DHT22;26462;47.384;19.218;2022-07-23T03:16:56;24.30;77.70
40758;DHT22;26462;47.384;19.218;2022-07-23T03:19:23;24.30;78.10
40758;DHT22;26462;47.384;19.218;2022-07-23T03:21:51;24.30;77.10
40758;DHT22;26462;47.384;19.218;2022-07-23T03:24:18;24.30;75.70
40758;DHT22;26462;47.384;19.218;2022-07-23T03:26:45;24.30;76.30
40758;DHT22;26462;47.384;19.218;2022-07-23T03:29:13;24.30;76.40
40758;DHT22;26462;47.384;19.218;2022-07-23T03:31:41;24.30;76.90
40758;DHT22;26462;47.384;19.218;2022-07-23T03:34:09;24.30;76.60
40758;DHT22;26462;47.384;19.218;2022-07-23T03:36:36;24.30;76.50
40758;DHT22;26462;47.384;19.218;2022-07-23T03:39:05;24.40;77.00
40758;DHT22;26462;47.384;19.218;2022-07-23T03:41:39;24.30;76.90
40758;DHT22;26462;47.384;19.218;2022-07-23T03:44:07;24.40;76.80
40758;DHT22;26462;47.384;19.218;2022-07-23T03:46:34;24.40;76.20
40758;DHT22;26462;47.384;19.218;2022-07-23T03:49:01;24.40;74.50
40758;DHT22;26462;47.384;19.218;2022-07-23T03:51:29;24.40;74.10
40758;DHT22;26462;47.384;19.218;2022-07-23T03:53:57;24.40;74.10
40758;DHT22;26462;47.384;19.218;2022-07-23T03:56:24;24.40;73.30
40758;DHT22;26462;47.384;19.218;2022-07-23T03:58:52;24.50;73.80
40758;DHT22;26462;47.384;19.218;2022-07-23T04:01:19;24.50;74.10
40758;DHT22;26462;47.384;19.218;2022-07-23T04:03:47;24.50;74.70
40758;DHT22;26462;47.384;19.218;2022-07-23T04:06:15;24.60;76.00
40758;DHT22;26462;47.384;19.218;2022-07-23T04:08:42;24.70;75.20
40758;DHT22;26462;47.384;19.218;2022-07-23T04:11:10;24.70;75.50
40758;DHT22;26462;47.384;19.218;2022-07-23T04:13:37;24.80;75.10
40758;DHT22;26462;47.384;19.218;2022-07-23T04:16:05;24.80;74.30
40758;DHT22;26462;47.384;19.218;2022-07-23T04:18:33;24.90;74.60
40758;DHT22;26462;47.384;19.218;2022-07-23T04:21:14;24.90;75.70
40758;DHT22;26462;47.384;19.218;2022-07-23T04:23:43;24.90;73.50
40758;DHT22;26462;47.384;19.218;2022-07-23T04:26:12;25.00;74.40
40758;DHT22;26462;47.384;19.218;2022-07-23T04:28:45;25.10;75.70
40758;DHT22;26462;47.384;19.218;2022-07-23T04:31:12;25.10;75.20
40758;DHT22;26462;47.384;19.218;2022-07-23T04:33:40;25.10;75.40
40758;DHT22;26462;47.384;19.218;2022-07-23T04:36:07;25.10;73.50
40758;DHT22;26462;47.384;19.218;2022-07-23T04:38:35;25.20;73.50
40758;DHT22;26462;47.384;19.218;2022-07-23T04:41:03;25.20;75.10
40758;DHT22;26462;47.384;19.218;2022-07-23T04:43:30;25.20;75.40
40758;DHT22;26462;47.384;19.218;2022-07-23T04:45:58;25.20;74.40
40758;DHT22;26462;47.384;19.218;2022-07-23T04:48:26;25.20;75.10
40758;DHT22;26462;47.384;19.218;2022-07-23T04:51:07;25.30;72.30
40758;DHT22;26462;47.384;19.218;2022-07-23T04:53:37;25.40;71.20
40758;DHT22;26462;47.384;19.218;2022-07-23T04:56:05;25.40;71.80
40758;DHT22;26462;47.384;19.218;2022-07-23T04:58:32;25.40;70.30
40758;DHT22;26462;47.384;19.218;2022-07-23T05:01:00;25.40;69.10
40758;DHT22;26462;47.384;19.218;2022-07-23T05:03:29;25.40;68.60
40758;DHT22;26462;47.384;19.218;2022-07-23T05:05:57;25.40;70.00
40758;DHT22;26462;47.384;19.218;2022-07-23T05:08:24;25.40;69.50
40758;DHT22;26462;47.384;19.218;2022-07-23T05:10:54;25.50;70.50
40758;DHT22;26462;47.384;19.218;2022-07-23T05:13:22;25.60;70.40
40758;DHT22;26462;47.384;19.218;2022-07-23T05:15:51;25.80;70.20
40758;DHT22;26462;47.384;19.218;2022-07-23T05:18:19;26.00;69.20
40758;DHT22;26462;47.384;19.218;2022-07-23T05:20:47;26.10;65.40
40758;DHT22;26462;47.384;19.218;2022-07-23T05:23:18;26.30;65.70
40758;DHT22;26462;47.384;19.218;2022-07-23T05:25:47;26.40;65.40
40758;DHT22;26462;47.384;19.218;2022-07-23T05:28:15;26.50;62.60
40758;DHT22;26462;47.384;19.218;2022-07-23T05:30:47;26.60;62.20
40758;DHT22;26462;47.384;19.218;2022-07-23T05:33:19;26.80;62.70
40758;DHT22;26462;47.384;19.218;2022-07-23T05:35:47;27.00;61.80
40758;DHT22;26462;47.384;19.218;2022-07-23T05:38:29;27.10;60.20
40758;DHT22;26462;47.384;19.218;2022-07-23T05:40:59;27.20;59.80
40758;DHT22;26462;47.384;19.218;2022-07-23T05:43:28;27.30;60.50
40758;DHT22;26462;47.384;19.218;2022-07-23T05:45:57;27.50;60.00
40758;DHT22;26462;47.384;19.218;2022-07-23T05:48:25;27.60;60.70
40758;DHT22;26462;47.384;19.218;2022-07-23T05:51:22;27.70;60.00
40758;DHT22;26462;47.384;19.218;2022-07-23T05:53:52;27.80;60.10
40758;DHT22;26462;47.384;19.218;2022-07-23T05:56:20;27.80;59.30
40758;DHT22;26462;47.384;19.218;2022-07-23T05:58:48;28.00;60.20
40758;DHT22;26462;47.384;19.218;2022-07-23T06:01:17;28.00;60.00
40758;DHT22;26462;47.384;19.218;2022-07-23T06:03:54;28.10;58.70
40758;DHT22;26462;47.384;19.218;2022-07-23T06:06:29;28.20;59.10
40758;DHT22;26462;47.384;19.218;2022-07-23T06:08:56;28.40;58.40
40758;DHT22;26462;47.384;19.218;2022-07-23T06:11:24;28.50;58.80
40758;DHT22;26462;47.384;19.218;2022-07-23T06:13:51;28.60;58.50
40758;DHT22;26462;47.384;19.218;2022-07-23T06:16:23;28.80;58.80
40758;DHT22;26462;47.384;19.218;2022-07-23T06:18:51;29.00;59.10
40758;DHT22;26462;47.384;19.218;2022-07-23T06:21:19;29.10;58.40
40758;DHT22;26462;47.384;19.218;2022-07-23T06:24:07;29.30;58.50
40758;DHT22;26462;47.384;19.218;2022-07-23T06:26:34;29.40;57.20
40758;DHT22;26462;47.384;19.218;2022-07-23T06:29:03;29.50;57.30
40758;DHT22;26462;47.384;19.218;2022-07-23T06:31:31;29.50;55.60
40758;DHT22;26462;47.384;19.218;2022-07-23T06:33:58;29.60;56.70
40758;DHT22;26462;47.384;19.218;2022-07-23T06:36:26;29.70;56.00
40758;DHT22;26462;47.384;19.218;2022-07-23T06:38:54;29.80;56.00
40758;DHT22;26462;47.384;19.218;2022-07-23T06:41:21;30.00;55.60
40758;DHT22;26462;47.384;19.218;2022-07-23T06:43:49;29.90;54.90
40758;DHT22;26462;47.384;19.218;2022-07-23T06:46:17;30.00;56.10
40758;DHT22;26462;47.384;19.218;2022-07-23T06:48:46;30.10;55.90
40758;DHT22;26462;47.384;19.218;2022-07-23T06:51:13;30.20;56.10
40758;DHT22;26462;47.384;19.218;2022-07-23T06:53:41;30.30;55.80
40758;DHT22;26462;47.384;19.218;2022-07-23T06:56:09;30.50;56.60
40758;DHT22;26462;47.384;19.218;2022-07-23T06:58:36;30.60;55.10
40758;DHT22;26462;47.384;19.218;2022-07-23T07:01:05;30.60;56.00
40758;DHT22;26462;47.384;19.218;2022-07-23T07:03:33;30.80;56.10
40758;DHT22;26462;47.384;19.218;2022-07-23T07:06:00;30.80;55.60
40758;DHT22;26462;47.384;19.218;2022-07-23T07:08:29;30.90;54.50
40758;DHT22;26462;47.384;19.218;2022-07-23T07:10:56;31.10;53.90
40758;DHT22;26462;47.384;19.218;2022-07-23T07:13:24;31.10;52.60
40758;DHT22;26462;47.384;19.218;2022-07-23T07:15:51;31.20;52.50
40758;DHT22;26462;47.384;19.218;2022-07-23T07:18:19;31.30;52.10
40758;DHT22;26462;47.384;19.218;2022-07-23T07:20:46;31.40;52.20
40758;DHT22;26462;47.384;19.218;2022-07-23T07:23:14;31.50;53.50
40758;DHT22;26462;47.384;19.218;2022-07-23T07:25:42;31.60;52.90
40758;DHT22;26462;47.384;19.218;2022-07-23T07:28:10;31.70;51.10
40758;DHT22;26462;47.384;19.218;2022-07-23T07:30:37;31.70;50.80
40758;DHT22;26462;47.384;19.218;2022-07-23T07:33:05;31.60;51.10
40758;DHT22;26462;47.384;19.218;2022-07-23T07:35:32;31.80;53.50
40758;DHT22;26462;47.384;19.218;2022-07-23T07:38:00;32.00;51.60
40758;DHT22;26462;47.384;19.218;2022-07-23T07:40:28;32.00;50.30
40758;DHT22;26462;47.384;19.218;2022-07-23T07:43:00;32.10;50.90
40758;DHT22;26462;47.384;19.218;2022-07-23T07:45:29;32.30;51.60
40758;DHT22;26462;47.384;19.218;2022-07-23T07:47:57;32.50;50.60
40758;DHT22;26462;47.384;19.218;2022-07-23T07:50:24;32.50;49.70
40758;DHT22;26462;47.384;19.218;2022-07-23T07:52:52;32.50;49.40
40758;DHT22;26462;47.384;19.218;2022-07-23T07:55:19;32.60;49.80
40758;DHT22;26462;47.384;19.218;2022-07-23T07:57:47;32.80;50.60
40758;DHT22;26462;47.384;19.218;2022-07-23T08:00:16;32.80;48.30
40758;DHT22;26462;47.384;19.218;2022-07-23T08:02:50;32.80;50.40
40758;DHT22;26462;47.384;19.218;2022-07-23T08:05:23;32.90;50.10
40758;DHT22;26462;47.384;19.218;2022-07-23T08:07:55;33.00;49.80
40758;DHT22;26462;47.384;19.218;2022-07-23T08:10:23;33.10;49.10
40758;DHT22;26462;47.384;19.218;2022-07-23T08:12:52;33.10;48.30
40758;DHT22;26462;47.384;19.218;2022-07-23T08:15:21;33.30;49.00
40758;DHT22;26462;47.384;19.218;2022-07-23T08:17:50;33.30;47.80
40758;DHT22;26462;47.384;19.218;2022-07-23T08:20:19;33.40;48.20
40758;DHT22;26462;47.384;19.218;2022-07-23T08:22:54;33.40;48.10
40758;DHT22;26462;47.384;19.218;2022-07-23T08:25:27;33.50;49.60
40758;DHT22;26462;47.384;19.218;2022-07-23T08:27:56;33.60;48.20
40758;DHT22;26462;47.384;19.218;2022-07-23T08:30:24;33.70;48.10
40758;DHT22;26462;47.384;19.218;2022-07-23T08:33:05;33.70;48.90
40758;DHT22;26462;47.384;19.218;2022-07-23T08:36:01;33.70;47.00
40758;DHT22;26462;47.384;19.218;2022-07-23T08:38:31;33.70;49.20
40758;DHT22;26462;47.384;19.218;2022-07-23T08:40:58;33.80;48.00
40758;DHT22;26462;47.384;19.218;2022-07-23T08:43:31;33.80;48.40
40758;DHT22;26462;47.384;19.218;2022-07-23T08:46:00;33.90;48.20
40758;DHT22;26462;47.384;19.218;2022-07-23T08:48:31;34.00;49.30
40758;DHT22;26462;47.384;19.218;2022-07-23T08:51:01;34.10;48.40
40758;DHT22;26462;47.384;19.218;2022-07-23T08:53:29;34.00;47.80
40758;DHT22;26462;47.384;19.218;2022-07-23T08:55:59;34.00;46.10
40758;DHT22;26462;47.384;19.218;2022-07-23T08:58:28;33.90;48.00
40758;DHT22;26462;47.384;19.218;2022-07-23T09:00:56;34.20;47.00
40758;DHT22;26462;47.384;19.218;2022-07-23T09:03:35;34.20;48.50
40758;DHT22;26462;47.384;19.218;2022-07-23T09:06:03;34.20;46.00
40758;DHT22;26462;47.384;19.218;2022-07-23T09:08:42;34.00;46.80
40758;DHT22;26462;47.384;19.218;2022-07-23T09:11:12;34.10;47.10
40758;DHT22;26462;47.384;19.218;2022-07-23T09:13:51;34.10;46.10
40758;DHT22;26462;47.384;19.218;2022-07-23T09:19:01;34.40;47.30
40758;DHT22;26462;47.384;19.218;2022-07-23T09:21:34;34.50;45.80
40758;DHT22;26462;47.384;19.218;2022-07-23T09:24:09;34.40;46.40
40758;DHT22;26462;47.384;19.218;2022-07-23T09:26:41;34.30;45.70
40758;DHT22;26462;47.384;19.218;2022-07-23T09:29:09;34.30;46.60
40758;DHT22;26462;47.384;19.218;2022-07-23T09:31:52;34.50;47.00
40758;DHT22;26462;47.384;19.218;2022-07-23T09:34:33;34.60;47.60
40758;DHT22;26462;47.384;19.218;2022-07-23T09:37:12;34.70;47.60
40758;DHT22;26462;47.384;19.218;2022-07-23T09:39:41;34.70;45.50
40758;DHT22;26462;47.384;19.218;2022-07-23T09:42:25;34.70;47.30
40758;DHT22;26462;47.384;19.218;2022-07-23T09:44:55;34.70;46.10
40758;DHT22;26462;47.384;19.218;2022-07-23T09:47:26;34.50;45.10
40758;DHT22;26462;47.384;19.218;2022-07-23T09:50:20;34.60;46.60
40758;DHT22;26462;47.384;19.218;2022-07-23T09:52:53;34.70;45.90
40758;DHT22;26462;47.384;19.218;2022-07-23T09:55:32;34.80;46.20
40758;DHT22;26462;47.384;19.218;2022-07-23T09:58:06;34.80;46.20
40758;DHT22;26462;47.384;19.218;2022-07-23T10:00:36;34.80;46.00
40758;DHT22;26462;47.384;19.218;2022-07-23T10:03:06;34.70;45.80
40758;DHT22;26462;47.384;19.218;2022-07-23T10:05:40;34.70;45.00
40758;DHT22;26462;47.384;19.218;2022-07-23T10:08:29;34.70;44.70
40758;DHT22;26462;47.384;19.218;2022-07-23T10:11:17;34.80;45.70
40758;DHT22;26462;47.384;19.218;2022-07-23T10:14:06;34.90;47.20
40758;DHT22;26462;47.384;19.218;2022-07-23T10:16:51;35.10;46.20
40758;DHT22;26462;47.384;19.218;2022-07-23T10:19:18;35.10;45.80
40758;DHT22;26462;47.384;19.218;2022-07-23T10:21:49;35.10;45.30
40758;DHT22;26462;47.384;19.218;2022-07-23T10:24:21;35.10;46.30
40758;DHT22;26462;47.384;19.218;2022-07-23T10:27:32;35.10;45.70
40758;DHT22;26462;47.384;19.218;2022-07-23T10:30:05;35.30;45.10
40758;DHT22;26462;47.384;19.218;2022-07-23T10:32:44;35.20;44.70
40758;DHT22;26462;47.384;19.218;2022-07-23T10:38:26;35.30;44.30
40758;DHT22;26462;47.384;19.218;2022-07-23T10:41:00;35.30;44.90
40758;DHT22;26462;47.384;19.218;2022-07-23T10:43:29;35.40;45.20
40758;DHT22;26462;47.384;19.218;2022-07-23T10:46:33;35.50;44.20
40758;DHT22;26462;47.384;19.218;2022-07-23T10:49:26;35.20;43.70
40758;DHT22;26462;47.384;19.218;2022-07-23T10:52:23;35.20;44.20
40758;DHT22;26462;47.384;19.218;2022-07-23T10:57:48;35.30;45.00
40758;DHT22;26462;47.384;19.218;2022-07-23T11:00:27;35.40;44.30
40758;DHT22;26462;47.384;19.218;2022-07-23T11:02:58;35.40;45.00
40758;DHT22;26462;47.384;19.218;2022-07-23T11:05:44;35.30;43.60
40758;DHT22;26462;47.384;19.218;2022-07-23T11:08:17;35.10;44.30
40758;DHT22;26462;47.384;19.218;2022-07-23T11:10:54;35.30;45.00
40758;DHT22;26462;47.384;19.218;2022-07-23T11:24:09;35.50;43.10
40758;DHT22;26462;47.384;19.218;2022-07-23T11:32:29;35.40;43.70
40758;DHT22;26462;47.384;19.218;2022-07-23T11:34:57;35.40;42.60
40758;DHT22;26462;47.384;19.218;2022-07-23T11:37:39;35.40;43.40
40758;DHT22;26462;47.384;19.218;2022-07-23T11:40:13;35.40;44.40
40758;DHT22;26462;47.384;19.218;2022-07-23T11:42:58;35.60;44.60
40758;DHT22;26462;47.384;19.218;2022-07-23T11:45:32;35.60;44.10
40758;DHT22;26462;47.384;19.218;2022-07-23T11:48:01;35.70;43.80
40758;DHT22;26462;47.384;19.218;2022-07-23T11:50:29;35.80;43.80
40758;DHT22;26462;47.384;19.218;2022-07-23T11:52:57;35.70;43.20
40758;DHT22;26462;47.384;19.218;2022-07-23T11:55:25;35.60;44.30
40758;DHT22;26462;47.384;19.218;2022-07-23T11:57:53;35.50;44.50
40758;DHT22;26462;47.384;19.218;2022-07-23T12:00:25;35.60;44.30
40758;DHT22;26462;47.384;19.218;2022-07-23T12:02:59;35.50;44.20
40758;DHT22;26462;47.384;19.218;2022-07-23T12:05:34;35.60;43.50
40758;DHT22;26462;47.384;19.218;2022-07-23T12:08:04;35.50;43.90
40758;DHT22;26462;47.384;19.218;2022-07-23T12:10:43;35.70;43.50
40758;DHT22;26462;47.384;19.218;2022-07-23T12:13:14;35.80;43.00
40758;DHT22;26462;47.384;19.218;2022-07-23T12:15:45;35.90;42.80
40758;DHT22;26462;47.384;19.218;2022-07-23T12:18:16;35.90;43.70
40758;DHT22;26462;47.384;19.218;2022-07-23T12:20:46;35.90;43.50
40758;DHT22;26462;47.384;19.218;2022-07-23T12:23:16;35.70;43.30
40758;DHT22;26462;47.384;19.218;2022-07-23T12:25:49;35.60;42.70
40758;DHT22;26462;47.384;19.218;2022-07-23T12:28:21;35.60;43.80
40758;DHT22;26462;47.384;19.218;2022-07-23T12:30:54;35.70;42.70
40758;DHT22;26462;47.384;19.218;2022-07-23T12:33:37;35.60;43.40
40758;DHT22;26462;47.384;19.218;2022-07-23T12:36:07;35.70;44.40
40758;DHT22;26462;47.384;19.218;2022-07-23T12:38:43;35.60;43.20
40758;DHT22;26462;47.384;19.218;2022-07-23T12:41:13;35.70;43.60
40758;DHT22;26462;47.384;19.218;2022-07-23T12:43:43;35.70;43.20
40758;DHT22;26462;47.384;19.218;2022-07-23T12:46:17;35.90;43.70
40758;DHT22;26462;47.384;19.218;2022-07-23T12:48:53;35.90;43.50
40758;DHT22;26462;47.384;19.218;2022-07-23T12:51:26;35.80;42.70
40758;DHT22;26462;47.384;19.218;2022-07-23T12:54:13;35.90;43.00
40758;DHT22;26462;47.384;19.218;2022-07-23T12:56:44;36.00;43.00
40758;DHT22;26462;47.384;19.218;2022-07-23T12:59:15;36.10;44.10
40758;DHT22;26462;47.384;19.218;2022-07-23T13:01:53;36.20;41.50
40758;DHT22;26462;47.384;19.218;2022-07-23T13:04:24;36.10;42.10
40758;DHT22;26462;47.384;19.218;2022-07-23T13:06:55;35.90;41.80
40758;DHT22;26462;47.384;19.218;2022-07-23T13:09:42;35.90;41.70
40758;DHT22;26462;47.384;19.218;2022-07-23T13:12:10;36.00;41.60
40758;DHT22;26462;47.384;19.218;2022-07-23T13:14:38;36.10;41.50
40758;DHT22;26462;47.384;19.218;2022-07-23T13:17:08;36.00;42.00
40758;DHT22;26462;47.384;19.218;2022-07-23T13:19:35;36.00;42.10
40758;DHT22;26462;47.384;19.218;2022-07-23T13:22:03;36.10;40.60
40758;DHT22;26462;47.384;19.218;2022-07-23T13:24:35;36.20;39.90
40758;DHT22;26462;47.384;19.218;2022-07-23T13:27:05;36.30;40.60
40758;DHT22;26462;47.384;19.218;2022-07-23T13:29:37;36.40;40.40
40758;DHT22;26462;47.384;19.218;2022-07-23T13:32:05;36.40;40.40
40758;DHT22;26462;47.384;19.218;2022-07-23T13:34:37;36.40;40.80
40758;DHT22;26462;47.384;19.218;2022-07-23T13:37:06;36.30;40.50
40758;DHT22;26462;47.384;19.218;2022-07-23T13:39:34;36.10;39.90
40758;DHT22;26462;47.384;19.218;2022-07-23T13:42:05;36.00;40.80
40758;DHT22;26462;47.384;19.218;2022-07-23T13:44:34;36.00;40.90
40758;DHT22;26462;47.384;19.218;2022-07-23T13:47:02;36.10;40.60
40758;DHT22;26462;47.384;19.218;2022-07-23T13:49:31;36.20;41.40
40758;DHT22;26462;47.384;19.218;2022-07-23T13:52:02;36.20;41.20
40758;DHT22;26462;47.384;19.218;2022-07-23T13:54:34;36.30;41.40
40758;DHT22;26462;47.384;19.218;2022-07-23T13:57:01;36.30;40.40
40758;DHT22;26462;47.384;19.218;2022-07-23T13:59:29;36.20;41.10
40758;DHT22;26462;47.384;19.218;2022-07-23T14:01:57;36.30;40.10
40758;DHT22;26462;47.384;19.218;2022-07-23T14:04:44;36.30;40.50
40758;DHT22;26462;47.384;19.218;2022-07-23T14:07:12;36.30;40.70
40758;DHT22;26462;47.384;19.218;2022-07-23T14:09:39;36.40;40.40
40758;DHT22;26462;47.384;19.218;2022-07-23T14:12:07;36.30;38.90
40758;DHT22;26462;47.384;19.218;2022-07-23T14:14:37;36.30;39.90
40758;DHT22;26462;47.384;19.218;2022-07-23T14:17:04;36.40;40.00
40758;DHT22;26462;47.384;19.218;2022-07-23T14:19:33;36.40;40.80
40758;DHT22;26462;47.384;19.218;2022-07-23T14:22:01;36.40;39.80
40758;DHT22;26462;47.384;19.218;2022-07-23T14:24:28;36.40;40.00
40758;DHT22;26462;47.384;19.218;2022-07-23T14:27:03;36.40;40.30
40758;DHT22;26462;47.384;19.218;2022-07-23T14:29:32;36.40;40.90
40758;DHT22;26462;47.384;19.218;2022-07-23T14:32:01;36.40;40.50
40758;DHT22;26462;47.384;19.218;2022-07-23T14:34:28;36.30;40.70
40758;DHT22;26462;47.384;19.218;2022-07-23T14:36:56;36.20;40.10
40758;DHT22;26462;47.384;19.218;2022-07-23T14:39:24;36.10;40.70
40758;DHT22;26462;47.384;19.218;2022-07-23T14:41:53;36.10;41.50
40758;DHT22;26462;47.384;19.218;2022-07-23T14:44:20;36.10;40.50
40758;DHT22;26462;47.384;19.218;2022-07-23T14:46:47;36.10;40.50
40758;DHT22;26462;47.384;19.218;2022-07-23T14:49:16;36.00;41.00
40758;DHT22;26462;47.384;19.218;2022-07-23T14:51:44;36.00;41.10
40758;DHT22;26462;47.384;19.218;2022-07-23T14:54:12;36.00;39.80
40758;DHT22;26462;47.384;19.218;2022-07-23T14:56:41;35.90;41.00
40758;DHT22;26462;47.384;19.218;2022-07-23T14:59:10;35.90;41.40
40758;DHT22;26462;47.384;19.218;2022-07-23T15:01:37;35.70;41.10
40758;DHT22;26462;47.384;19.218;2022-07-23T15:04:06;35.60;41.90
40758;DHT22;26462;47.384;19.218;2022-07-23T15:06:53;35.40;41.70
40758;DHT22;26462;47.384;19.218;2022-07-23T15:09:20;35.10;42.00
40758;DHT22;26462;47.384;19.218;2022-07-23T15:11:48;35.00;42.00
40758;DHT22;26462;47.384;19.218;2022-07-23T15:14:16;34.90;42.60
40758;DHT22;26462;47.384;19.218;2022-07-23T15:16:56;34.80;42.80
40758;DHT22;26462;47.384;19.218;2022-07-23T15:19:24;34.80;42.90
40758;DHT22;26462;47.384;19.218;2022-07-23T15:21:51;34.70;43.20
40758;DHT22;26462;47.384;19.218;2022-07-23T15:24:19;34.60;44.00
40758;DHT22;26462;47.384;19.218;2022-07-23T15:26:46;34.50;43.50
40758;DHT22;26462;47.384;19.218;2022-07-23T15:29:14;34.40;43.90
40758;DHT22;26462;47.384;19.218;2022-07-23T15:31:41;34.40;43.60
40758;DHT22;26462;47.384;19.218;2022-07-23T15:34:09;34.30;43.40
40758;DHT22;26462;47.384;19.218;2022-07-23T15:36:37;34.20;43.90
40758;DHT22;26462;47.384;19.218;2022-07-23T15:39:04;34.20;44.20
40758;DHT22;26462;47.384;19.218;2022-07-23T15:41:33;34.10;44.20
40758;DHT22;26462;47.384;19.218;2022-07-23T15:44:01;34.00;44.50
40758;DHT22;26462;47.384;19.218;2022-07-23T15:46:48;33.90;44.60
40758;DHT22;26462;47.384;19.218;2022-07-23T15:49:16;33.90;44.70
40758;DHT22;26462;47.384;19.218;2022-07-23T15:51:45;33.80;44.30
40758;DHT22;26462;47.384;19.218;2022-07-23T15:54:13;33.70;44.20
40758;DHT22;26462;47.384;19.218;2022-07-23T15:56:41;33.70;44.30
40758;DHT22;26462;47.384;19.218;2022-07-23T15:59:09;33.70;44.00
40758;DHT22;26462;47.384;19.218;2022-07-23T16:01:37;33.30;47.60